createdAt,value
2023-05-23T00:00:11.446Z,4.23
2023-05-23T00:02:39.051Z,4.83
2023-05-23T00:05:07.324Z,4.37
2023-05-23T00:07:34.312Z,4.33
2023-05-23T00:10:01.359Z,4.40
2023-05-23T00:12:29.429Z,4.80
2023-05-23T00:14:56.326Z,4.30
2023-05-23T00:17:25.421Z,5.00
2023-05-23T00:19:52.875Z,4.50
2023-05-23T00:22:20.000Z,4.43
2023-05-23T00:24:46.865Z,4.60
2023-05-23T00:27:13.831Z,4.87
2023-05-23T00:29:40.936Z,5.30
2023-05-23T00:32:07.962Z,4.50
2023-05-23T00:34:35.028Z,4.50
2023-05-23T00:37:02.373Z,4.30
2023-05-23T00:39:29.457Z,4.10
2023-05-23T00:41:57.099Z,5.00
2023-05-23T00:44:24.370Z,4.33
2023-05-23T00:46:55.602Z,5.10
2023-05-23T00:49:22.994Z,4.67
2023-05-23T00:51:51.595Z,4.70
2023-05-23T00:54:29.613Z,4.30
2023-05-23T00:56:56.718Z,4.70
2023-05-23T00:59:26.044Z,4.50
2023-05-23T01:01:57.461Z,4.23
2023-05-23T01:04:28.498Z,4.37
2023-05-23T01:06:56.486Z,4.67
2023-05-23T01:09:28.573Z,4.63
2023-05-23T01:12:24.969Z,3.90
2023-05-23T01:15:13.265Z,4.10
2023-05-23T01:17:58.573Z,4.87
2023-05-23T01:20:40.060Z,3.90
2023-05-23T01:23:47.331Z,4.90
2023-05-23T01:26:40.337Z,4.10
2023-05-23T01:29:15.327Z,4.63
2023-05-23T01:31:47.413Z,4.60
2023-05-23T01:34:15.077Z,5.00
2023-05-23T01:36:43.680Z,4.83
2023-05-23T01:39:11.959Z,5.00
2023-05-23T01:41:38.864Z,4.47
2023-05-23T01:44:06.053Z,4.37
2023-05-23T01:46:34.476Z,4.80
2023-05-23T01:49:03.943Z,4.87
2023-05-23T01:51:31.236Z,4.70
2023-05-23T01:53:58.234Z,4.37
2023-05-23T01:56:27.170Z,4.90
2023-05-23T01:58:54.347Z,4.53
2023-05-23T02:01:21.754Z,4.23
2023-05-23T02:03:49.584Z,4.73
2023-05-23T02:06:16.456Z,4.10
2023-05-23T02:08:43.359Z,4.90
2023-05-23T02:11:10.704Z,4.80
2023-05-23T02:13:37.753Z,4.97
2023-05-23T02:16:04.941Z,5.33
2023-05-23T02:18:31.847Z,4.70
2023-05-23T02:20:58.956Z,5.40
2023-05-23T02:23:25.853Z,5.10
2023-05-23T02:25:52.731Z,5.10
2023-05-23T02:28:19.866Z,5.50
2023-05-23T02:30:46.831Z,4.90
2023-05-23T02:33:13.974Z,4.20
2023-05-23T02:35:41.309Z,4.60
2023-05-23T02:38:08.522Z,5.70
2023-05-23T02:40:35.553Z,5.20
2023-05-23T02:43:02.589Z,4.83
2023-05-23T02:45:29.610Z,4.90
2023-05-23T02:47:56.537Z,4.60
2023-05-23T02:50:23.758Z,5.27
2023-05-23T02:52:50.864Z,4.90
2023-05-23T02:55:17.784Z,5.27
2023-05-23T02:57:44.705Z,4.70
2023-05-23T03:00:13.159Z,5.30
2023-05-23T03:02:40.275Z,5.60
2023-05-23T03:05:07.941Z,4.97
2023-05-23T03:07:34.893Z,5.57
2023-05-23T03:10:01.876Z,5.27
2023-05-23T03:12:29.345Z,5.10
2023-05-23T03:14:56.345Z,5.67
2023-05-23T03:17:26.109Z,11.60
2023-05-23T03:19:53.125Z,5.80
2023-05-23T03:22:20.382Z,5.60
2023-05-23T03:24:47.407Z,5.30
2023-05-23T03:27:14.663Z,6.47
2023-05-23T03:29:41.639Z,5.37
2023-05-23T03:32:08.650Z,5.30
2023-05-23T03:34:36.625Z,5.40
2023-05-23T03:37:04.202Z,5.57
2023-05-23T03:39:31.367Z,5.77
2023-05-23T03:41:58.291Z,5.50
2023-05-23T03:44:25.733Z,5.67
2023-05-23T03:46:53.237Z,7.90
2023-05-23T03:49:20.247Z,5.13
2023-05-23T03:51:47.202Z,5.00
2023-05-23T03:54:14.120Z,5.30
2023-05-23T03:56:41.019Z,5.20
2023-05-23T03:59:07.967Z,5.30
2023-05-23T04:01:34.899Z,5.77
2023-05-23T04:04:02.088Z,5.60
2023-05-23T04:06:31.289Z,5.60
2023-05-23T04:08:58.173Z,5.43
2023-05-23T04:11:25.145Z,6.93
2023-05-23T04:13:52.165Z,6.40
2023-05-23T04:16:19.276Z,6.73
2023-05-23T04:18:47.582Z,5.60
2023-05-23T04:21:14.631Z,6.50
2023-05-23T04:23:41.637Z,6.10
2023-05-23T04:26:10.152Z,6.80
2023-05-23T04:28:37.738Z,5.50
2023-05-23T04:31:04.828Z,6.37
2023-05-23T04:33:34.226Z,6.00
2023-05-23T04:36:02.570Z,5.70
2023-05-23T04:38:29.536Z,5.60
2023-05-23T04:40:58.028Z,5.40
2023-05-23T04:43:27.427Z,5.20
2023-05-23T04:45:54.378Z,6.00
2023-05-23T04:48:24.094Z,5.60
2023-05-23T04:50:52.574Z,5.07
2023-05-23T04:53:19.597Z,5.70
2023-05-23T04:55:47.047Z,5.17
2023-05-23T04:58:14.155Z,5.90
2023-05-23T05:00:41.623Z,6.53
2023-05-23T05:03:09.902Z,6.17
2023-05-23T05:05:37.337Z,5.97
2023-05-23T05:08:04.345Z,5.70
2023-05-23T05:10:31.361Z,5.30
2023-05-23T05:12:58.340Z,6.13
2023-05-23T05:15:26.424Z,5.90
2023-05-23T05:17:53.694Z,5.50
2023-05-23T05:20:21.729Z,5.70
2023-05-23T05:22:58.257Z,6.20
2023-05-23T05:25:27.337Z,7.07
2023-05-23T05:27:55.541Z,6.13
2023-05-23T05:30:22.764Z,7.03
2023-05-23T05:32:50.050Z,5.53
2023-05-23T05:35:17.735Z,6.17
2023-05-23T05:37:44.699Z,6.20
2023-05-23T05:40:12.648Z,6.10
2023-05-23T05:42:39.624Z,7.33
2023-05-23T05:45:07.328Z,6.00
2023-05-23T05:47:34.384Z,5.97
2023-05-23T05:50:01.693Z,5.90
2023-05-23T05:52:28.610Z,6.97
2023-05-23T05:54:57.690Z,6.17
2023-05-23T05:57:24.654Z,6.97
2023-05-23T05:59:52.463Z,6.93
2023-05-23T06:02:19.508Z,6.90
2023-05-23T06:04:47.025Z,7.03
2023-05-23T06:07:13.997Z,6.23
2023-05-23T06:09:41.247Z,6.60
2023-05-23T06:12:08.450Z,6.73
2023-05-23T06:14:35.436Z,6.80
2023-05-23T06:17:03.544Z,6.17
2023-05-23T06:19:30.516Z,11.67
2023-05-23T06:21:57.545Z,7.47
2023-05-23T06:24:24.472Z,32.10
2023-05-23T06:26:51.355Z,7.97
2023-05-23T06:29:18.271Z,6.40
2023-05-23T06:31:45.250Z,7.07
2023-05-23T06:34:12.219Z,6.63
2023-05-23T06:36:39.146Z,7.50
2023-05-23T06:39:06.044Z,8.17
2023-05-23T06:41:33.037Z,6.87
2023-05-23T06:43:59.915Z,6.87
2023-05-23T06:46:27.116Z,6.33
2023-05-23T06:49:06.638Z,6.57
2023-05-23T06:51:41.481Z,6.60
2023-05-23T06:54:08.484Z,5.70
2023-05-23T06:56:35.435Z,6.53
2023-05-23T06:59:02.352Z,6.00
2023-05-23T07:01:29.329Z,6.53
2023-05-23T07:03:56.401Z,5.97
2023-05-23T07:06:23.409Z,5.30
2023-05-23T07:08:50.510Z,6.60
2023-05-23T07:11:17.533Z,6.80
2023-05-23T07:13:44.520Z,5.73
2023-05-23T07:16:11.763Z,6.37
2023-05-23T07:18:38.907Z,5.20
2023-05-23T07:21:06.087Z,6.63
2023-05-23T07:23:36.564Z,5.93
2023-05-23T07:26:04.539Z,5.40
2023-05-23T07:28:31.503Z,5.47
2023-05-23T07:30:58.698Z,5.57
2023-05-23T07:33:26.001Z,5.13
2023-05-23T07:35:52.934Z,5.90
2023-05-23T07:38:19.966Z,5.67
2023-05-23T07:40:58.860Z,5.00
2023-05-23T07:43:33.979Z,6.20
2023-05-23T07:46:01.456Z,5.77
2023-05-23T07:48:28.479Z,5.90
2023-05-23T07:50:55.615Z,5.63
2023-05-23T07:53:22.716Z,5.50
2023-05-23T07:55:49.766Z,5.07
2023-05-23T07:58:16.807Z,5.30
2023-05-23T08:00:45.608Z,5.53
2023-05-23T08:03:13.367Z,6.13
2023-05-23T08:05:40.507Z,4.80
2023-05-23T08:08:07.439Z,5.50
2023-05-23T08:10:34.374Z,6.07
2023-05-23T08:13:06.705Z,5.33
2023-05-23T08:15:34.137Z,5.27
2023-05-23T08:18:01.368Z,6.03
2023-05-23T08:20:32.125Z,5.10
2023-05-23T08:23:03.195Z,5.23
2023-05-23T08:25:30.904Z,5.40
2023-05-23T08:28:01.742Z,5.37
2023-05-23T08:30:29.760Z,5.13
2023-05-23T08:32:57.979Z,5.20
2023-05-23T08:37:52.735Z,4.07
2023-05-23T08:40:23.464Z,4.53
2023-05-23T08:42:51.317Z,4.50
2023-05-23T08:45:18.765Z,3.63
2023-05-23T08:47:47.505Z,4.30
2023-05-23T08:50:19.280Z,3.70
2023-05-23T08:52:57.832Z,3.67
2023-05-23T08:55:29.380Z,3.43
2023-05-23T08:58:01.553Z,3.60
2023-05-23T09:00:28.673Z,4.20
2023-05-23T09:02:57.258Z,9.60
2023-05-23T09:05:24.636Z,6.20
2023-05-23T09:07:52.970Z,4.30
2023-05-23T09:10:20.506Z,4.10
2023-05-23T09:12:47.564Z,3.80
2023-05-23T09:15:14.823Z,3.33
2023-05-23T09:17:41.972Z,3.67
2023-05-23T09:20:14.342Z,4.50
2023-05-23T09:22:42.136Z,3.97
2023-05-23T09:25:09.327Z,4.70
2023-05-23T09:27:36.516Z,3.93
2023-05-23T09:30:11.584Z,4.50
2023-05-23T09:32:38.853Z,4.17
2023-05-23T09:35:12.181Z,5.33
2023-05-23T09:37:45.841Z,4.87
2023-05-23T09:40:16.389Z,5.10
2023-05-23T09:42:48.103Z,4.63
2023-05-23T09:45:17.183Z,5.30
2023-05-23T09:47:53.700Z,5.37
2023-05-23T09:50:23.915Z,5.07
2023-05-23T09:52:51.340Z,5.10
2023-05-23T09:55:18.666Z,4.70
2023-05-23T09:57:49.179Z,4.60
2023-05-23T10:00:17.123Z,5.70
2023-05-23T10:03:08.251Z,4.97
2023-05-23T10:05:48.000Z,5.57
2023-05-23T10:08:23.612Z,5.50
2023-05-23T10:10:56.600Z,6.80
2023-05-23T10:13:28.094Z,9.67
2023-05-23T10:16:12.571Z,13.40
2023-05-23T10:18:44.870Z,8.27
2023-05-23T10:21:32.152Z,6.77
2023-05-23T10:24:01.044Z,8.17
2023-05-23T10:26:28.786Z,7.80
2023-05-23T10:28:57.354Z,8.20
2023-05-23T10:31:25.199Z,8.57
2023-05-23T10:34:49.811Z,7.97
2023-05-23T10:37:31.857Z,9.30
2023-05-23T10:40:26.814Z,8.70
2023-05-23T10:43:08.145Z,9.80
2023-05-23T10:45:42.858Z,9.70
2023-05-23T10:48:33.906Z,8.67
2023-05-23T10:51:07.220Z,9.80
2023-05-23T10:53:40.081Z,9.40
2023-05-23T10:56:08.517Z,9.77
2023-05-23T10:58:38.832Z,9.20
2023-05-23T11:01:09.714Z,10.07
2023-05-23T11:03:38.560Z,9.57
2023-05-23T11:06:06.324Z,12.00
2023-05-23T11:08:48.454Z,11.60
2023-05-23T11:11:16.165Z,14.97
2023-05-23T11:13:56.604Z,16.43
2023-05-23T11:16:28.965Z,13.10
2023-05-23T11:19:22.958Z,14.03
2023-05-23T11:21:54.249Z,14.53
2023-05-23T11:24:21.857Z,13.87
2023-05-23T11:27:01.301Z,14.63
2023-05-23T11:29:29.005Z,15.03
2023-05-23T11:31:57.200Z,15.40
2023-05-23T11:34:26.538Z,15.13
2023-05-23T11:36:55.669Z,15.47
2023-05-23T11:39:23.712Z,15.90
2023-05-23T11:42:03.813Z,15.97
2023-05-23T11:44:31.152Z,15.13
2023-05-23T11:47:02.707Z,16.10
2023-05-23T11:49:39.371Z,17.90
2023-05-23T11:52:07.413Z,16.73
2023-05-23T11:54:34.360Z,16.27
2023-05-23T11:57:02.679Z,17.80
2023-05-23T11:59:29.839Z,17.73
2023-05-23T12:01:56.797Z,17.80
2023-05-23T12:04:26.952Z,16.80
2023-05-23T12:06:54.443Z,17.50
2023-05-23T12:09:21.852Z,15.67
2023-05-23T12:11:49.657Z,16.00
2023-05-23T12:14:18.394Z,16.17
2023-05-23T12:16:49.632Z,16.10
2023-05-23T12:19:19.583Z,15.57
2023-05-23T12:21:48.390Z,15.57
2023-05-23T12:24:23.055Z,16.50
2023-05-23T12:27:02.827Z,16.17
2023-05-23T12:29:34.710Z,14.87
2023-05-23T12:32:04.515Z,14.40
2023-05-23T12:34:31.607Z,14.70
2023-05-23T12:37:18.225Z,15.17
2023-05-23T12:39:46.975Z,15.70
2023-05-23T12:42:13.970Z,14.93
2023-05-23T12:44:43.787Z,15.40
2023-05-23T12:47:10.836Z,13.30
2023-05-23T12:49:38.682Z,13.73
2023-05-23T12:52:06.018Z,13.50
2023-05-23T12:54:32.907Z,12.33
2023-05-23T12:56:59.877Z,12.73
2023-05-23T12:59:26.785Z,13.07
2023-05-23T13:01:54.163Z,19.07
2023-05-23T13:04:21.143Z,15.40
2023-05-23T13:06:48.122Z,10.73
2023-05-23T13:09:15.011Z,11.80
2023-05-23T13:11:42.030Z,12.07
2023-05-23T13:14:09.862Z,12.87
2023-05-23T13:16:36.921Z,13.13
2023-05-23T13:19:04.041Z,14.20
2023-05-23T13:21:31.720Z,14.07
2023-05-23T13:23:58.688Z,14.33
2023-05-23T13:26:26.614Z,17.00
2023-05-23T13:28:53.702Z,16.20
2023-05-23T13:31:21.443Z,17.17
2023-05-23T13:33:48.392Z,17.37
2023-05-23T13:36:15.463Z,17.43
2023-05-23T13:38:42.391Z,17.60
2023-05-23T13:41:09.364Z,17.47
2023-05-23T13:43:36.558Z,17.20
2023-05-23T13:46:03.796Z,19.30
2023-05-23T13:48:30.854Z,17.73
2023-05-23T13:50:58.046Z,17.97
2023-05-23T13:53:25.020Z,31.63
2023-05-23T13:55:52.255Z,21.33
2023-05-23T13:58:19.219Z,21.10
2023-05-23T14:00:47.450Z,16.23
2023-05-23T14:03:15.647Z,16.60
2023-05-23T14:05:42.652Z,18.40
2023-05-23T14:08:11.263Z,15.70
2023-05-23T14:10:38.242Z,16.97
2023-05-23T14:13:06.870Z,15.93
2023-05-23T14:15:34.902Z,16.33
2023-05-23T14:18:02.062Z,15.23
2023-05-23T14:20:29.963Z,17.07
2023-05-23T14:22:56.857Z,17.50
2023-05-23T14:25:23.776Z,19.43
2023-05-23T14:27:50.823Z,19.00
2023-05-23T14:30:17.781Z,18.90
2023-05-23T14:32:44.798Z,19.20
2023-05-23T14:35:12.189Z,20.03
2023-05-23T14:37:39.542Z,18.40
2023-05-23T14:40:09.898Z,16.83
2023-05-23T14:42:37.184Z,25.37
2023-05-23T14:45:04.999Z,19.70
2023-05-23T14:47:32.659Z,19.43
2023-05-23T14:50:00.043Z,18.13
2023-05-23T14:52:27.030Z,19.13
2023-05-23T14:54:54.004Z,16.83
2023-05-23T14:57:21.076Z,15.40
2023-05-23T14:59:48.031Z,17.40
2023-05-23T15:02:15.066Z,15.53
2023-05-23T15:04:42.067Z,14.23
2023-05-23T15:07:09.041Z,11.10
2023-05-23T15:09:36.466Z,10.80
2023-05-23T15:12:05.272Z,8.90
2023-05-23T15:14:32.291Z,9.10
2023-05-23T15:17:07.587Z,9.27
2023-05-23T15:19:38.084Z,8.37
2023-05-23T15:22:05.876Z,8.30
2023-05-23T15:24:33.758Z,8.00
2023-05-23T15:27:15.870Z,7.20
2023-05-23T15:29:46.973Z,6.03
2023-05-23T15:32:14.134Z,8.70
2023-05-23T15:34:41.288Z,10.23
2023-05-23T15:37:08.238Z,8.17
2023-05-23T15:39:35.152Z,6.03
2023-05-23T15:42:02.155Z,7.63
2023-05-23T15:44:29.147Z,5.97
2023-05-23T15:46:56.365Z,6.10
2023-05-23T15:49:26.849Z,6.23
2023-05-23T15:51:55.340Z,6.60
2023-05-23T15:54:22.774Z,5.80
2023-05-23T15:56:49.774Z,5.90
2023-05-23T15:59:16.725Z,6.93
2023-05-23T16:01:43.797Z,7.73
2023-05-23T16:04:10.863Z,7.93
2023-05-23T16:06:39.473Z,5.60
2023-05-23T16:09:06.674Z,6.20
2023-05-23T16:11:33.637Z,6.87
2023-05-23T16:14:00.710Z,7.33
2023-05-23T16:16:27.694Z,7.27
2023-05-23T16:18:54.717Z,8.07
2023-05-23T16:21:21.676Z,7.73
2023-05-23T16:23:49.384Z,14.10
2023-05-23T16:26:18.686Z,9.20
2023-05-23T16:28:46.088Z,7.53
2023-05-23T16:31:15.470Z,7.70
2023-05-23T16:33:43.363Z,7.10
2023-05-23T16:36:10.415Z,7.90
2023-05-23T16:38:37.398Z,7.33
2023-05-23T16:41:04.471Z,8.00
2023-05-23T16:43:31.464Z,8.27
2023-05-23T16:45:58.822Z,8.40
2023-05-23T16:48:25.848Z,7.53
2023-05-23T16:50:57.283Z,7.80
2023-05-23T16:53:24.721Z,14.40
2023-05-23T16:55:51.916Z,9.00
2023-05-23T16:58:20.873Z,12.20
2023-05-23T17:00:48.707Z,9.20
2023-05-23T17:03:16.076Z,7.13
2023-05-23T17:05:43.401Z,6.40
2023-05-23T17:08:10.686Z,5.70
2023-05-23T17:10:37.703Z,5.07
2023-05-23T17:13:04.710Z,22.47
2023-05-23T17:15:31.788Z,17.03
2023-05-23T17:17:58.886Z,7.73
2023-05-23T17:20:27.048Z,5.27
2023-05-23T17:22:54.711Z,5.73
2023-05-23T17:25:22.052Z,4.67
2023-05-23T17:27:49.266Z,3.67
2023-05-23T17:30:18.607Z,5.27
2023-05-23T17:32:47.374Z,3.20
2023-05-23T17:35:14.397Z,3.50
2023-05-23T17:45:09.979Z,3.13
2023-05-23T17:47:37.015Z,6.07
2023-05-23T17:50:06.236Z,6.50
2023-05-23T17:55:00.781Z,3.53
2023-05-23T17:57:28.241Z,4.10
2023-05-23T17:59:55.211Z,7.87
2023-05-23T18:02:22.153Z,7.13
2023-05-23T18:04:49.307Z,16.10
2023-05-23T18:07:19.194Z,4.03
2023-05-23T18:09:47.143Z,3.67
2023-05-23T18:12:14.908Z,4.30
2023-05-23T18:14:42.322Z,3.50
2023-05-23T18:17:09.854Z,4.30
2023-05-23T18:19:37.367Z,4.67
2023-05-23T18:22:04.827Z,5.03
2023-05-23T18:24:31.717Z,5.13
2023-05-23T18:26:58.858Z,5.80
2023-05-23T18:29:26.244Z,5.03
2023-05-23T18:31:53.172Z,4.07
2023-05-23T18:34:21.375Z,4.30
2023-05-23T18:36:48.426Z,5.60
2023-05-23T18:39:16.647Z,5.50
2023-05-23T18:41:43.732Z,5.20
2023-05-23T18:44:10.915Z,4.80
2023-05-23T18:46:37.913Z,4.27
2023-05-23T18:49:05.100Z,4.60
2023-05-23T18:51:33.339Z,5.10
2023-05-23T18:54:00.287Z,4.13
2023-05-23T18:56:27.429Z,5.47
2023-05-23T18:58:54.810Z,7.27
2023-05-23T19:01:22.101Z,10.80
2023-05-23T19:03:49.187Z,4.83
2023-05-23T19:06:16.517Z,5.83
2023-05-23T19:08:43.480Z,12.00
2023-05-23T19:11:10.813Z,7.10
2023-05-23T19:13:38.099Z,5.50
2023-05-23T19:16:05.374Z,6.30
2023-05-23T19:18:32.354Z,4.90
2023-05-23T19:20:59.319Z,5.17
2023-05-23T19:23:27.976Z,5.00
2023-05-23T19:25:55.049Z,4.47
2023-05-23T19:28:21.965Z,4.67
2023-05-23T19:30:49.195Z,4.87
2023-05-23T19:33:18.082Z,4.30
2023-05-23T19:35:45.381Z,4.60
2023-05-23T19:38:12.377Z,4.53
2023-05-23T19:40:39.610Z,3.90
2023-05-23T19:43:06.988Z,4.80
2023-05-23T19:45:33.982Z,14.47
2023-05-23T19:48:01.795Z,7.03
2023-05-23T19:50:29.110Z,6.50
2023-05-23T19:52:56.056Z,5.33
2023-05-23T19:55:23.097Z,5.63
2023-05-23T19:57:50.226Z,5.27
2023-05-23T20:00:17.904Z,5.60
2023-05-23T20:02:45.095Z,4.77
2023-05-23T20:05:12.104Z,4.90
2023-05-23T20:07:39.935Z,4.73
2023-05-23T20:10:07.474Z,6.00
2023-05-23T20:12:34.950Z,4.43
2023-05-23T20:15:02.979Z,4.20
2023-05-23T20:17:30.771Z,5.43
2023-05-23T20:19:58.019Z,4.90
2023-05-23T20:22:24.985Z,4.63
2023-05-23T20:24:51.963Z,5.00
2023-05-23T20:27:18.880Z,4.80
2023-05-23T20:29:45.870Z,5.33
2023-05-23T20:32:12.930Z,5.40
2023-05-23T20:34:39.856Z,5.20
2023-05-23T20:37:06.833Z,5.27
2023-05-23T20:39:33.815Z,5.43
2023-05-23T20:42:01.180Z,5.30
2023-05-23T20:44:28.159Z,4.67
2023-05-23T20:46:56.983Z,4.50
2023-05-23T20:49:24.856Z,4.70
2023-05-23T20:51:51.868Z,4.90
2023-05-23T20:54:19.108Z,4.43
2023-05-23T20:56:46.407Z,4.23
2023-05-23T20:59:13.513Z,4.97
2023-05-23T21:01:40.676Z,4.03
2023-05-23T21:04:07.727Z,4.33
2023-05-23T21:06:34.725Z,4.57
2023-05-23T21:09:01.636Z,4.60
2023-05-23T21:11:28.780Z,3.60
2023-05-23T21:13:57.322Z,5.10
2023-05-23T21:16:24.287Z,4.27
2023-05-23T21:18:51.256Z,5.40
2023-05-23T21:21:18.220Z,3.87
2023-05-23T21:23:45.383Z,4.10
2023-05-23T21:26:12.407Z,4.23
2023-05-23T21:28:39.337Z,4.27
2023-05-23T21:31:06.724Z,4.27
2023-05-23T21:33:33.965Z,3.60
2023-05-23T21:36:02.260Z,3.93
2023-05-23T21:38:30.222Z,4.30
2023-05-23T21:40:57.249Z,4.17
2023-05-23T21:43:24.214Z,4.97
2023-05-23T21:45:51.141Z,4.30
2023-05-23T21:48:18.042Z,3.80
2023-05-23T21:50:45.071Z,3.70
2023-05-23T21:53:11.980Z,4.47
2023-05-23T21:55:39.002Z,4.37
2023-05-23T21:58:05.991Z,5.37
2023-05-23T22:00:32.940Z,3.27
2023-05-23T22:03:00.034Z,3.63
2023-05-23T22:05:27.169Z,4.10
2023-05-23T22:07:55.100Z,4.37
2023-05-23T22:10:22.050Z,4.80
2023-05-23T22:12:49.071Z,3.37
2023-05-23T22:15:16.058Z,4.10
2023-05-23T22:20:14.782Z,5.10
2023-05-23T22:32:29.730Z,3.00
2023-05-23T22:34:56.697Z,4.07
2023-05-23T22:37:23.621Z,4.83
2023-05-23T22:39:50.663Z,4.30
2023-05-23T22:42:17.794Z,3.27
2023-05-23T22:44:44.693Z,2.93
2023-05-23T22:47:13.641Z,2.83
2023-05-23T22:49:42.449Z,3.27
2023-05-23T22:52:09.625Z,3.63
2023-05-23T22:54:36.587Z,3.50
2023-05-23T22:57:03.788Z,3.37
2023-05-23T22:59:31.080Z,4.03
2023-05-23T23:01:58.050Z,4.55
2023-05-23T23:04:25.464Z,3.40
2023-05-23T23:06:53.843Z,3.37
2023-05-23T23:09:21.344Z,3.43
2023-05-23T23:11:48.360Z,3.90
2023-05-23T23:14:15.843Z,4.07
2023-05-23T23:16:43.373Z,4.23
2023-05-23T23:19:10.549Z,3.40
2023-05-23T23:21:37.893Z,3.57
2023-05-23T23:26:33.115Z,3.90
2023-05-23T23:29:00.140Z,3.93
2023-05-23T23:31:27.225Z,3.15
2023-05-23T23:33:54.772Z,4.07
2023-05-23T23:36:21.843Z,4.53
2023-05-23T23:38:49.198Z,3.20
2023-05-23T23:41:16.220Z,4.67
2023-05-23T23:43:43.417Z,3.43
2023-05-23T23:46:11.369Z,3.97
2023-05-23T23:48:38.493Z,5.37
2023-05-23T23:51:06.890Z,4.03
2023-05-23T23:53:34.257Z,3.73
2023-05-23T23:56:01.305Z,4.13
2023-05-23T23:58:28.470Z,3.17
